Portada
METAR-TAF:

METAR-TAF

Aeroports :

Aeroport de La Palma

La Palma, Espanya

latitud: 28-37N, longitud: 017-45W, altitud: 29 m

Observació

L'informe es va fer fa 31 minuts, a les 04:30 UTC
Vent 12 kt del Nord
Temperatura 17°C
Humitat 59%
Pressió 1017 hPa
Visibilitat 10 km o més
Cel cobert a una alçada de 4700 ft

METAR: GCLA 230430Z AUTO 35012KT 9999 OVC047 17/09 Q1017

Hora: 05:01 (05:01 UTC)

Pronòstic

L'informe es va fer fa 3 hores i 1 minuts, a les 02:00 UTC
Pronòstic vàlid del 23 a les 03 UTC al 24 a les 03 UTC
Vent 16 kt del Nord/Nord-Est
Visibilitat 10 km o més
Cel ennuvolat a una alçada de 4000 ft
Evolucionant progressivament
l' 23 a les 21 UTC al 23 a les 23 UTC
Vent 6 kt del Nord-Oest

TAF: GCLA 230200Z 2303/2403 02016KT 9999 BKN040 TX22/2315Z TN16/2306Z BECMG 2321/2323 31006KT

Observacions i pronòstics meteorològics de més de 4000 aeroports (METAR i TAF).

Les estacions disponibles són els punts grocs i vermells al mapa.

Posi el ratolí al punt desitjat per veure el nom de l'estació.

Feu clic per veure les observacions i els pronòstics meteorològics.

Per canviar el mapa: feu clic els botons verds amb una creu de color negre per apropar; al botó verd amb un guió per allunyar la imatge; o en les fletxes verdes per a mapes adjacents.


METAR-TAF: